createdAt,value
2017-12-13T00:01:15.846Z,5.20
2017-12-13T00:03:43.549Z,5.17
2017-12-13T00:06:11.227Z,6.23
2017-12-13T00:08:38.968Z,5.47
2017-12-13T00:11:07.593Z,5.90
2017-12-13T00:13:35.281Z,5.10
2017-12-13T00:16:03.003Z,4.30
2017-12-13T00:18:30.765Z,2.83
2017-12-13T00:20:58.534Z,2.70
2017-12-13T00:23:26.277Z,2.50
2017-12-13T00:25:53.981Z,2.80
2017-12-13T00:28:21.715Z,3.70
2017-12-13T00:30:49.578Z,3.40
2017-12-13T00:33:17.297Z,3.67
2017-12-13T00:35:44.959Z,2.00
2017-12-13T00:38:12.717Z,2.20
2017-12-13T00:40:40.477Z,1.80
2017-12-13T00:43:08.146Z,1.37
2017-12-13T00:45:35.836Z,1.10
2017-12-13T00:48:03.622Z,3.23
2017-12-13T00:50:31.306Z,1.37
2017-12-13T00:52:59.042Z,3.07
2017-12-13T00:55:26.790Z,2.53
2017-12-13T00:57:54.521Z,3.47
2017-12-13T01:00:22.278Z,3.63
2017-12-13T01:02:49.954Z,2.60
2017-12-13T01:05:17.705Z,2.30
2017-12-13T01:07:45.410Z,2.93
2017-12-13T01:10:13.186Z,1.13
2017-12-13T01:12:40.877Z,1.53
2017-12-13T01:15:09.215Z,1.87
2017-12-13T01:17:36.895Z,2.60
2017-12-13T01:20:04.637Z,2.17
2017-12-13T01:22:32.482Z,1.20
2017-12-13T01:25:00.195Z,0.80
2017-12-13T01:27:27.914Z,1.53
2017-12-13T01:29:55.641Z,1.30
2017-12-13T01:32:23.317Z,1.60
2017-12-13T01:34:51.060Z,1.17
2017-12-13T01:37:18.785Z,0.67
2017-12-13T01:39:46.493Z,0.50
2017-12-13T01:42:14.249Z,0.80
2017-12-13T01:44:41.996Z,0.50
2017-12-13T01:47:09.736Z,1.10
2017-12-13T01:49:37.501Z,0.67
2017-12-13T01:52:05.226Z,0.90
2017-12-13T01:54:32.915Z,0.67
2017-12-13T01:57:00.626Z,0.40
2017-12-13T01:59:28.310Z,0.53
2017-12-13T02:01:56.044Z,1.07
2017-12-13T02:04:23.769Z,0.70
2017-12-13T02:06:51.535Z,1.00
2017-12-13T02:09:19.268Z,1.73
2017-12-13T02:11:47.061Z,2.30
2017-12-13T02:14:14.788Z,1.83
2017-12-13T02:16:42.524Z,1.30
2017-12-13T02:19:10.288Z,1.00
2017-12-13T02:21:38.022Z,0.60
2017-12-13T02:24:05.810Z,1.13
2017-12-13T02:26:33.541Z,0.90
2017-12-13T02:29:01.259Z,1.20
2017-12-13T02:31:28.948Z,1.20
2017-12-13T02:33:56.643Z,1.33
2017-12-13T02:36:24.377Z,1.37
2017-12-13T02:38:52.049Z,0.87
2017-12-13T02:41:19.786Z,1.43
2017-12-13T02:43:47.540Z,0.63
2017-12-13T02:46:15.241Z,0.60
2017-12-13T02:48:42.952Z,0.73
2017-12-13T02:51:10.670Z,0.80
2017-12-13T02:53:38.424Z,0.70
2017-12-13T02:56:06.189Z,0.40
2017-12-13T02:58:33.997Z,0.57
2017-12-13T03:01:01.730Z,0.80
2017-12-13T03:03:29.438Z,0.87
2017-12-13T03:05:57.259Z,0.50
2017-12-13T03:08:24.996Z,0.70
2017-12-13T03:10:52.910Z,0.70
2017-12-13T03:13:20.668Z,0.30
2017-12-13T03:15:48.425Z,0.60
2017-12-13T03:18:16.189Z,0.67
2017-12-13T03:20:44.032Z,1.37
2017-12-13T03:23:11.786Z,0.53
2017-12-13T03:25:39.500Z,0.87
2017-12-13T03:28:07.187Z,0.60
2017-12-13T03:30:34.927Z,1.27
2017-12-13T03:33:02.598Z,0.57
2017-12-13T03:35:31.309Z,0.53
2017-12-13T03:37:59.019Z,0.40
2017-12-13T03:40:26.771Z,0.43
2017-12-13T03:42:54.444Z,0.63
2017-12-13T03:45:22.133Z,0.60
2017-12-13T03:47:49.867Z,0.40
2017-12-13T03:50:17.618Z,0.40
2017-12-13T03:52:45.386Z,0.63
2017-12-13T03:55:13.107Z,0.50
2017-12-13T03:57:40.822Z,0.40
2017-12-13T04:00:08.619Z,0.40
2017-12-13T04:02:36.972Z,0.50
2017-12-13T04:05:04.767Z,0.40
2017-12-13T04:07:32.511Z,0.50
2017-12-13T04:10:00.442Z,0.50
2017-12-13T04:12:28.127Z,0.37
2017-12-13T04:14:55.886Z,0.77
2017-12-13T04:17:23.579Z,0.30
2017-12-13T04:19:51.303Z,0.30
2017-12-13T04:22:19.066Z,0.40
2017-12-13T04:24:46.772Z,1.50
2017-12-13T04:27:14.506Z,0.77
2017-12-13T04:29:42.211Z,0.50
2017-12-13T04:32:09.970Z,0.33
2017-12-13T04:34:37.694Z,0.50
2017-12-13T04:37:05.458Z,0.40
2017-12-13T04:39:33.142Z,0.40
2017-12-13T04:42:00.864Z,0.40
2017-12-13T04:44:28.572Z,0.33
2017-12-13T04:46:56.259Z,0.30
2017-12-13T04:49:23.991Z,0.50
2017-12-13T04:51:51.743Z,0.60
2017-12-13T04:54:19.485Z,1.33
2017-12-13T04:56:47.159Z,0.50
2017-12-13T04:59:14.937Z,0.73
2017-12-13T05:01:43.572Z,1.17
2017-12-13T05:04:11.279Z,1.97
2017-12-13T05:06:39.032Z,0.83
2017-12-13T05:09:06.739Z,1.33
2017-12-13T05:11:34.464Z,3.73
2017-12-13T05:14:02.306Z,3.00
2017-12-13T05:16:29.998Z,1.80
2017-12-13T05:18:57.745Z,3.07
2017-12-13T05:21:25.495Z,3.97
2017-12-13T05:23:53.237Z,1.53
2017-12-13T05:26:21.016Z,3.53
2017-12-13T05:28:48.844Z,1.53
2017-12-13T05:31:16.555Z,2.30
2017-12-13T05:33:44.281Z,1.57
2017-12-13T05:36:12.225Z,1.07
2017-12-13T05:38:40.974Z,1.67
2017-12-13T05:41:08.684Z,1.27
2017-12-13T05:43:36.470Z,0.40
2017-12-13T05:46:04.170Z,1.00
2017-12-13T05:48:31.894Z,0.30
2017-12-13T05:50:59.637Z,0.90
2017-12-13T05:53:27.314Z,8.37
2017-12-13T05:55:55.053Z,1.70
2017-12-13T05:58:22.736Z,0.63
2017-12-13T06:00:50.592Z,1.57
2017-12-13T06:03:18.266Z,1.70
2017-12-13T06:05:45.965Z,0.60
2017-12-13T06:08:13.798Z,0.63
2017-12-13T06:10:41.608Z,1.07
2017-12-13T06:13:09.359Z,0.77
2017-12-13T06:15:37.107Z,1.83
2017-12-13T06:18:04.806Z,5.07
2017-12-13T06:20:32.537Z,3.10
2017-12-13T06:23:00.238Z,2.83
2017-12-13T06:25:27.909Z,4.73
2017-12-13T06:27:56.520Z,25.47
2017-12-13T06:30:24.248Z,14.60
2017-12-13T06:32:51.937Z,8.80
2017-12-13T06:35:19.775Z,7.13
2017-12-13T06:37:47.551Z,2.63
2017-12-13T06:40:15.481Z,2.40
2017-12-13T06:42:43.217Z,1.90
2017-12-13T06:45:11.186Z,3.03
2017-12-13T06:47:38.890Z,2.10
2017-12-13T06:50:06.586Z,1.00
2017-12-13T06:52:34.306Z,1.53
2017-12-13T06:55:02.038Z,0.53
2017-12-13T06:57:29.751Z,1.03
2017-12-13T06:59:57.551Z,0.43
2017-12-13T07:02:25.264Z,0.70
2017-12-13T07:04:52.994Z,0.63
2017-12-13T07:07:20.749Z,0.40
2017-12-13T07:09:48.550Z,0.63
2017-12-13T07:12:16.317Z,1.73
2017-12-13T07:14:44.050Z,0.70
2017-12-13T07:17:11.849Z,0.80
2017-12-13T07:19:39.643Z,0.80
2017-12-13T07:22:07.428Z,10.50
2017-12-13T07:24:35.153Z,1.80
2017-12-13T07:27:02.977Z,2.67
2017-12-13T07:29:30.730Z,2.40
2017-12-13T07:31:58.535Z,1.33
2017-12-13T07:34:26.397Z,0.47
2017-12-13T07:36:54.143Z,0.93
2017-12-13T07:39:21.926Z,0.60
2017-12-13T07:41:49.620Z,0.40
2017-12-13T07:44:17.345Z,0.90
2017-12-13T07:46:45.023Z,0.40
2017-12-13T07:49:12.765Z,0.57
2017-12-13T07:51:40.508Z,2.00
2017-12-13T07:54:08.277Z,34.10
2017-12-13T07:56:36.001Z,27.73
2017-12-13T07:59:03.688Z,6.93
2017-12-13T08:01:31.467Z,3.87
2017-12-13T08:03:59.163Z,1.37
2017-12-13T08:06:26.909Z,0.70
2017-12-13T08:08:54.619Z,0.40
2017-12-13T08:11:22.369Z,0.87
2017-12-13T08:13:50.080Z,0.30
2017-12-13T08:16:17.756Z,8.67
2017-12-13T08:18:45.567Z,0.70
2017-12-13T08:21:13.349Z,4.80
2017-12-13T08:23:41.119Z,19.17
2017-12-13T08:26:08.890Z,21.50
2017-12-13T08:28:36.628Z,15.83
2017-12-13T08:31:04.348Z,7.10
2017-12-13T08:33:33.132Z,2.40
2017-12-13T08:36:00.823Z,1.67
2017-12-13T08:38:28.537Z,3.27
2017-12-13T08:40:56.352Z,1.50
2017-12-13T08:43:24.089Z,0.90
2017-12-13T08:45:51.886Z,1.37
2017-12-13T08:48:19.762Z,0.80
2017-12-13T08:50:47.491Z,0.50
2017-12-13T08:53:15.207Z,2.53
2017-12-13T08:55:42.950Z,0.40
2017-12-13T08:58:10.700Z,0.37
2017-12-13T09:00:38.471Z,0.67
2017-12-13T09:03:06.173Z,1.67
2017-12-13T09:05:33.939Z,0.97
2017-12-13T09:08:01.661Z,0.63
2017-12-13T09:10:29.434Z,1.40
2017-12-13T09:12:57.211Z,2.53
2017-12-13T09:15:24.979Z,1.33
2017-12-13T09:17:53.073Z,1.27
2017-12-13T09:20:20.839Z,1.33
2017-12-13T09:22:48.547Z,3.90
2017-12-13T09:25:16.321Z,9.80
2017-12-13T09:27:44.060Z,9.37
2017-12-13T09:30:11.950Z,13.93
2017-12-13T09:32:39.731Z,8.80
2017-12-13T09:35:07.481Z,12.03
2017-12-13T09:37:36.608Z,15.53
2017-12-13T09:40:04.651Z,13.57
2017-12-13T09:42:32.358Z,13.33
2017-12-13T09:45:00.144Z,9.93
2017-12-13T09:47:27.951Z,11.87
2017-12-13T09:49:55.663Z,28.93
2017-12-13T09:52:23.407Z,14.20
2017-12-13T09:54:51.120Z,16.57
2017-12-13T09:57:18.943Z,16.03
2017-12-13T09:59:46.650Z,15.33
2017-12-13T10:02:14.505Z,13.57
2017-12-13T10:04:43.297Z,13.53
2017-12-13T10:07:11.052Z,18.93
2017-12-13T10:09:38.828Z,27.67
2017-12-13T10:12:06.587Z,15.00
2017-12-13T10:14:34.344Z,15.00
2017-12-13T10:17:02.112Z,12.40
2017-12-13T10:19:31.106Z,11.30
2017-12-13T10:21:58.817Z,13.40
2017-12-13T10:24:26.544Z,15.93
2017-12-13T10:26:54.302Z,7.10
2017-12-13T10:29:22.092Z,16.33
2017-12-13T10:31:49.813Z,10.70
2017-12-13T10:34:17.595Z,12.37
2017-12-13T10:36:45.357Z,10.60
2017-12-13T10:39:13.143Z,9.43
2017-12-13T10:41:40.873Z,12.10
2017-12-13T10:44:08.674Z,14.67
2017-12-13T10:46:36.490Z,10.93
2017-12-13T10:49:05.059Z,14.13
2017-12-13T10:51:32.781Z,7.73
2017-12-13T10:54:00.566Z,5.20
2017-12-13T10:56:28.362Z,6.00
2017-12-13T10:58:56.171Z,8.00
2017-12-13T11:01:23.916Z,4.27
2017-12-13T11:03:51.617Z,2.00
2017-12-13T11:06:19.345Z,3.97
2017-12-13T11:08:47.073Z,6.00
2017-12-13T11:11:14.801Z,5.13
2017-12-13T11:13:42.554Z,8.53
2017-12-13T11:16:10.273Z,6.53
2017-12-13T11:18:38.077Z,10.40
2017-12-13T11:21:06.070Z,4.97
2017-12-13T11:23:33.902Z,5.27
2017-12-13T11:26:01.721Z,5.37
2017-12-13T11:28:29.530Z,3.27
2017-12-13T11:30:57.307Z,3.60
2017-12-13T11:33:25.071Z,6.50
2017-12-13T11:35:52.837Z,4.30
2017-12-13T11:38:20.644Z,5.07
2017-12-13T11:40:48.416Z,2.83
2017-12-13T11:43:16.177Z,1.10
2017-12-13T11:45:43.902Z,2.77
2017-12-13T11:48:11.593Z,1.20
2017-12-13T11:50:39.337Z,1.43
2017-12-13T11:53:07.088Z,1.47
2017-12-13T11:55:34.773Z,4.23
2017-12-13T11:58:02.498Z,3.87
2017-12-13T12:00:30.287Z,5.63
2017-12-13T12:02:57.995Z,3.00
2017-12-13T12:05:25.753Z,3.27
2017-12-13T12:07:53.447Z,6.10
2017-12-13T12:10:21.188Z,5.97
2017-12-13T12:12:48.937Z,5.47
2017-12-13T12:15:16.728Z,9.60
2017-12-13T12:17:44.442Z,6.50
2017-12-13T12:20:12.222Z,6.33
2017-12-13T12:22:39.998Z,8.17
2017-12-13T12:25:07.714Z,3.13
2017-12-13T12:27:35.453Z,6.33
2017-12-13T12:30:03.186Z,5.60
2017-12-13T12:32:30.951Z,4.67
2017-12-13T12:34:58.703Z,21.07
2017-12-13T12:37:26.458Z,5.83
2017-12-13T12:39:54.209Z,4.70
2017-12-13T12:42:21.986Z,10.70
2017-12-13T12:44:49.715Z,8.43
2017-12-13T12:47:17.463Z,7.20
2017-12-13T12:49:45.184Z,4.63
2017-12-13T12:52:12.934Z,7.60
2017-12-13T12:54:40.731Z,3.33
2017-12-13T12:57:08.449Z,3.10
2017-12-13T12:59:36.227Z,4.27
2017-12-13T13:02:03.942Z,3.20
2017-12-13T13:04:31.705Z,11.83
2017-12-13T13:06:59.432Z,13.27
2017-12-13T13:09:27.223Z,10.00
2017-12-13T13:11:55.015Z,2.90
2017-12-13T13:14:22.751Z,17.10
2017-12-13T13:16:50.513Z,23.93
2017-12-13T13:19:18.593Z,21.63
2017-12-13T13:21:46.307Z,32.43
2017-12-13T13:24:14.315Z,21.90
2017-12-13T13:26:41.996Z,3.90
2017-12-13T13:29:09.709Z,1.07
2017-12-13T13:31:37.528Z,2.37
2017-12-13T13:34:05.320Z,3.67
2017-12-13T13:36:33.095Z,9.37
2017-12-13T13:39:00.866Z,7.70
2017-12-13T13:41:28.570Z,5.67
2017-12-13T13:43:56.342Z,11.60
2017-12-13T13:46:24.021Z,4.80
2017-12-13T13:48:51.731Z,4.00
2017-12-13T13:51:19.479Z,1.67
2017-12-13T13:53:47.305Z,0.93
2017-12-13T13:56:15.022Z,0.50
2017-12-13T13:58:42.734Z,0.50
2017-12-13T14:01:10.511Z,1.00
2017-12-13T14:03:38.183Z,0.50
2017-12-13T14:06:05.910Z,2.20
2017-12-13T14:08:33.648Z,6.60
2017-12-13T14:11:01.344Z,3.33
2017-12-13T14:13:29.098Z,3.53
2017-12-13T14:15:57.880Z,2.10
2017-12-13T14:18:25.585Z,0.60
2017-12-13T14:20:53.363Z,2.20
2017-12-13T14:23:21.460Z,0.97
2017-12-13T14:25:49.202Z,8.57
2017-12-13T14:28:16.953Z,30.07
2017-12-13T14:30:44.775Z,9.53
2017-12-13T14:33:12.533Z,6.20
2017-12-13T14:35:40.243Z,6.10
2017-12-13T14:38:07.948Z,0.80
2017-12-13T14:40:36.342Z,1.17
2017-12-13T14:43:04.069Z,0.87
2017-12-13T14:45:31.748Z,5.33
2017-12-13T14:47:59.558Z,3.60
2017-12-13T14:50:27.816Z,3.00
2017-12-13T14:52:55.538Z,6.40
2017-12-13T14:55:23.254Z,5.33
2017-12-13T14:57:50.981Z,6.40
2017-12-13T15:00:18.720Z,5.20
2017-12-13T15:02:46.455Z,1.50
2017-12-13T15:05:14.204Z,0.80
2017-12-13T15:07:41.983Z,1.70
2017-12-13T15:10:09.759Z,12.83
2017-12-13T15:12:37.580Z,7.60
2017-12-13T15:15:05.353Z,1.63
2017-12-13T15:17:33.165Z,0.77
2017-12-13T15:20:00.917Z,0.50
2017-12-13T15:22:28.743Z,2.17
2017-12-13T15:24:56.605Z,2.63
2017-12-13T15:27:24.273Z,1.97
2017-12-13T15:29:52.033Z,0.50
2017-12-13T15:32:19.729Z,1.90
2017-12-13T15:34:48.509Z,1.60
2017-12-13T15:37:16.478Z,1.30
2017-12-13T15:39:44.392Z,1.20
2017-12-13T15:42:12.198Z,0.70
2017-12-13T15:44:39.967Z,1.90
2017-12-13T15:47:07.713Z,1.57
2017-12-13T15:49:35.477Z,1.93
2017-12-13T15:52:03.304Z,1.43
2017-12-13T15:54:31.136Z,3.03
2017-12-13T15:56:58.909Z,0.60
2017-12-13T15:59:27.439Z,4.00
2017-12-13T16:01:55.206Z,0.80
2017-12-13T16:04:23.079Z,14.50
2017-12-13T16:06:50.868Z,2.17
2017-12-13T16:09:19.612Z,1.27
2017-12-13T16:11:47.362Z,0.93
2017-12-13T16:14:15.132Z,1.50
2017-12-13T16:16:42.933Z,0.70
2017-12-13T16:19:10.639Z,4.23
2017-12-13T16:21:38.395Z,1.53
2017-12-13T16:24:06.901Z,1.73
2017-12-13T16:26:34.602Z,0.60
2017-12-13T16:29:02.330Z,0.47
2017-12-13T16:31:30.182Z,1.10
2017-12-13T16:33:58.413Z,2.50
2017-12-13T16:36:26.756Z,0.30
2017-12-13T16:38:54.508Z,2.23
2017-12-13T16:41:22.326Z,0.73
2017-12-13T16:43:50.098Z,0.93
2017-12-13T16:46:17.816Z,4.03
2017-12-13T16:48:45.545Z,3.37
2017-12-13T16:51:13.340Z,5.30
2017-12-13T16:53:41.528Z,1.57
2017-12-13T16:56:09.492Z,1.23
2017-12-13T16:58:37.758Z,2.70
2017-12-13T17:01:05.601Z,1.97
2017-12-13T17:03:34.162Z,1.47
2017-12-13T17:06:01.973Z,1.10
2017-12-13T17:08:29.828Z,2.30
2017-12-13T17:10:57.680Z,0.90
2017-12-13T17:13:25.472Z,5.43
2017-12-13T17:15:54.289Z,18.43
2017-12-13T17:18:23.265Z,11.90
2017-12-13T17:20:51.070Z,13.00
2017-12-13T17:23:19.017Z,9.77
2017-12-13T17:25:46.968Z,9.57
2017-12-13T17:28:14.868Z,12.17
2017-12-13T17:30:42.867Z,8.33
2017-12-13T17:33:10.700Z,11.10
2017-12-13T17:35:38.519Z,11.67
2017-12-13T17:38:06.361Z,7.90
2017-12-13T17:40:34.250Z,8.57
2017-12-13T17:43:02.182Z,10.80
2017-12-13T17:45:30.950Z,25.30
2017-12-13T17:47:58.698Z,25.10
2017-12-13T17:50:26.479Z,21.17
2017-12-13T17:52:54.632Z,19.17
2017-12-13T17:55:22.450Z,15.93
2017-12-13T17:57:50.375Z,11.50
2017-12-13T18:00:18.276Z,6.00
2017-12-13T18:02:46.537Z,12.43
2017-12-13T18:05:14.364Z,7.43
2017-12-13T18:07:42.376Z,10.47
2017-12-13T18:10:10.344Z,12.73
2017-12-13T18:12:38.661Z,14.03
2017-12-13T18:15:06.544Z,6.60
2017-12-13T18:17:34.443Z,5.30
2017-12-13T18:20:02.261Z,4.30
2017-12-13T18:22:30.058Z,6.80
2017-12-13T18:24:58.429Z,3.43
2017-12-13T18:27:26.185Z,2.07
2017-12-13T18:29:54.880Z,2.23
2017-12-13T18:32:22.673Z,3.67
2017-12-13T18:34:50.512Z,3.40
2017-12-13T18:37:18.322Z,1.60
2017-12-13T18:39:46.128Z,2.03
2017-12-13T18:42:13.997Z,6.47
2017-12-13T18:44:42.802Z,4.10
2017-12-13T18:47:10.575Z,5.37
2017-12-13T18:49:38.509Z,8.97
2017-12-13T18:52:06.226Z,9.33
2017-12-13T18:54:34.934Z,11.67
2017-12-13T18:57:02.852Z,18.83
2017-12-13T18:59:30.756Z,21.43
2017-12-13T19:01:59.203Z,13.00
2017-12-13T19:04:27.131Z,13.37
2017-12-13T19:06:55.110Z,8.73
2017-12-13T19:09:23.284Z,9.90
2017-12-13T19:11:51.177Z,7.43
2017-12-13T19:14:18.956Z,5.33
2017-12-13T19:16:46.762Z,4.00
2017-12-13T19:19:14.572Z,3.33
2017-12-13T19:21:43.188Z,6.73
2017-12-13T19:24:10.997Z,3.83
2017-12-13T19:26:38.816Z,2.83
2017-12-13T19:29:07.164Z,3.83
2017-12-13T19:31:34.925Z,2.53
2017-12-13T19:34:03.382Z,4.63
2017-12-13T19:36:32.143Z,4.07
2017-12-13T19:38:59.898Z,4.53
2017-12-13T19:41:29.070Z,6.83
2017-12-13T19:43:58.916Z,21.80
2017-12-13T19:46:26.965Z,18.20
2017-12-13T19:48:54.783Z,17.17
2017-12-13T19:51:23.330Z,10.30
2017-12-13T19:53:51.245Z,9.03
2017-12-13T19:56:19.172Z,10.20
2017-12-13T19:58:47.044Z,7.83
2017-12-13T20:01:14.934Z,6.00
2017-12-13T20:03:43.095Z,4.07
2017-12-13T20:06:11.389Z,5.30
2017-12-13T20:08:39.857Z,3.93
2017-12-13T20:11:09.005Z,2.93
2017-12-13T20:13:36.856Z,3.53
2017-12-13T20:16:05.485Z,9.63
2017-12-13T20:18:33.322Z,4.53
2017-12-13T20:21:01.683Z,2.50
2017-12-13T20:23:31.163Z,4.63
2017-12-13T20:25:59.942Z,5.73
2017-12-13T20:28:28.294Z,4.43
2017-12-13T20:30:56.389Z,3.03
2017-12-13T20:33:24.407Z,2.20
2017-12-13T20:35:52.638Z,1.37
2017-12-13T20:38:20.482Z,1.20
2017-12-13T20:40:48.307Z,1.53
2017-12-13T20:43:16.012Z,1.63
2017-12-13T20:45:44.092Z,3.00
2017-12-13T20:48:11.824Z,2.83
2017-12-13T20:50:39.733Z,1.17
2017-12-13T20:53:08.755Z,1.57
2017-12-13T20:55:36.679Z,5.50
2017-12-13T20:58:04.517Z,3.53
2017-12-13T21:00:32.243Z,5.07
2017-12-13T21:03:00.074Z,10.30
2017-12-13T21:05:28.230Z,20.03
2017-12-13T21:07:55.991Z,22.00
2017-12-13T21:10:23.761Z,17.03
2017-12-13T21:12:51.552Z,16.33
2017-12-13T21:15:19.308Z,16.00
2017-12-13T21:17:47.784Z,31.13
2017-12-13T21:20:15.734Z,21.40
2017-12-13T21:22:43.497Z,15.03
2017-12-13T21:25:11.273Z,18.47
2017-12-13T21:27:38.996Z,11.40
2017-12-13T21:30:06.874Z,12.23
2017-12-13T21:32:34.597Z,12.40
2017-12-13T21:35:03.931Z,19.57
2017-12-13T21:37:31.761Z,12.13
2017-12-13T21:39:59.427Z,7.63
2017-12-13T21:42:27.351Z,11.00
2017-12-13T21:44:55.183Z,10.83
2017-12-13T21:47:22.887Z,12.70
2017-12-13T21:49:50.700Z,7.50
2017-12-13T21:52:18.413Z,10.57
2017-12-13T21:54:46.206Z,6.37
2017-12-13T21:57:13.953Z,5.13
2017-12-13T21:59:41.999Z,5.67
2017-12-13T22:02:09.826Z,9.77
2017-12-13T22:04:38.049Z,6.77
2017-12-13T22:07:06.192Z,16.37
2017-12-13T22:09:33.919Z,10.67
2017-12-13T22:12:01.712Z,8.63
2017-12-13T22:14:29.466Z,8.40
2017-12-13T22:16:57.295Z,10.10
2017-12-13T22:19:25.106Z,6.73
2017-12-13T22:21:52.916Z,10.20
2017-12-13T22:24:20.697Z,5.47
2017-12-13T22:26:48.717Z,4.20
2017-12-13T22:29:16.915Z,5.43
2017-12-13T22:31:44.738Z,9.20
2017-12-13T22:34:12.450Z,5.80
2017-12-13T22:36:40.326Z,3.60
2017-12-13T22:39:08.319Z,8.50
2017-12-13T22:41:36.094Z,3.83
2017-12-13T22:44:03.890Z,13.50
2017-12-13T22:46:31.673Z,8.37
2017-12-13T22:48:59.428Z,7.57
2017-12-13T22:51:27.209Z,8.17
2017-12-13T22:53:54.910Z,8.20
2017-12-13T22:56:23.868Z,9.10
2017-12-13T22:58:51.574Z,10.23
2017-12-13T23:01:19.374Z,5.33
2017-12-13T23:03:47.122Z,4.63
2017-12-13T23:06:14.823Z,3.80
2017-12-13T23:08:42.587Z,2.87
2017-12-13T23:11:10.297Z,3.10
2017-12-13T23:13:38.014Z,2.23
2017-12-13T23:16:05.776Z,3.67
2017-12-13T23:18:33.515Z,4.20
2017-12-13T23:21:01.262Z,11.60
2017-12-13T23:23:28.948Z,3.80
2017-12-13T23:25:56.698Z,5.90
2017-12-13T23:28:24.506Z,2.77
2017-12-13T23:30:52.299Z,3.93
2017-12-13T23:33:20.022Z,2.63
2017-12-13T23:35:47.720Z,3.00
2017-12-13T23:38:15.463Z,2.30
2017-12-13T23:40:43.132Z,3.73
2017-12-13T23:43:10.921Z,1.53
2017-12-13T23:45:38.710Z,3.70
2017-12-13T23:48:06.454Z,1.80
2017-12-13T23:50:34.200Z,3.23
2017-12-13T23:53:01.934Z,1.83
2017-12-13T23:55:29.672Z,1.20
2017-12-13T23:57:57.396Z,1.57
